Time,TemperatureF,DewpointF,PressureIn,WindDirection,WindDirectionDegrees,WindSpeedMPH,WindSpeedGustMPH,Humidity,HourlyPrecipIn,Conditions,Clouds,dailyrainin,SoftwareType,DateUTC
2013-02-13 00:01:00,35.0,24.0,-100.00,North,4,1.0,2.0,64,-99.99,,,-99.99,,2013-02-13 08:01:00,
2013-02-13 00:11:00,35.0,24.0,-100.00,North,350,2.0,3.0,63,-99.99,,,-99.99,,2013-02-13 08:11:00,
2013-02-13 00:21:00,38.0,22.0,-100.00,North,358,2.0,4.0,51,-99.99,,,-99.99,,2013-02-13 08:21:00,
2013-02-13 00:31:00,36.0,22.0,-100.00,NE,39,2.0,4.0,57,-99.99,,,-99.99,,2013-02-13 08:31:00,
2013-02-13 00:42:00,31.0,23.0,-100.00,ENE,61,4.0,5.0,71,-99.99,,,-99.99,,2013-02-13 08:42:00,
2013-02-13 00:52:00,32.0,24.0,-100.00,NNE,26,3.0,6.0,72,-99.99,,,-99.99,,2013-02-13 08:52:00,
2013-02-13 01:01:00,33.0,23.0,-100.00,NE,38,2.0,5.0,67,-99.99,,,-99.99,,2013-02-13 09:01:00,
2013-02-13 01:11:00,35.0,22.0,-100.00,North,354,3.0,5.0,59,-99.99,,,-99.99,,2013-02-13 09:11:00,
2013-02-13 01:21:00,37.0,21.0,-100.00,NNE,22,3.0,4.0,51,-99.99,,,-99.99,,2013-02-13 09:21:00,
2013-02-13 01:31:00,37.0,20.0,-100.00,NNE,17,2.0,3.0,50,-99.99,,,-99.99,,2013-02-13 09:31:00,
2013-02-13 01:41:00,37.0,20.0,-100.00,North,5,2.0,3.0,50,-99.99,,,-99.99,,2013-02-13 09:41:00,
2013-02-13 01:51:00,36.0,20.0,-100.00,NNE,33,2.0,3.0,51,-99.99,,,-99.99,,2013-02-13 09:51:00,
2013-02-13 02:01:00,36.0,20.0,-100.00,NNE,33,2.0,3.0,51,-99.99,,,-99.99,,2013-02-13 10:01:00,
2013-02-13 02:11:00,36.0,19.0,-100.00,NE,43,3.0,4.0,50,-99.99,,,-99.99,,2013-02-13 10:11:00,
2013-02-13 02:21:00,37.0,18.0,-100.00,North,1,2.0,4.0,45,-99.99,,,-99.99,,2013-02-13 10:21:00,
2013-02-13 02:31:00,38.0,18.0,-100.00,North,353,2.0,4.0,44,-99.99,,,-99.99,,2013-02-13 10:31:00,
2013-02-13 02:41:00,36.0,19.0,-100.00,NE,48,3.0,4.0,50,-99.99,,,-99.99,,2013-02-13 10:41:00,
2013-02-13 02:51:00,35.0,19.0,-100.00,North,7,3.0,4.0,52,-99.99,,,-99.99,,2013-02-13 10:51:00,
2013-02-13 03:01:00,38.0,17.0,-100.00,NNE,15,2.0,4.0,42,-99.99,,,-99.99,,2013-02-13 11:01:00,
2013-02-13 03:11:00,38.0,16.0,-100.00,NNE,21,2.0,3.0,41,-99.99,,,-99.99,,2013-02-13 11:11:00,
2013-02-13 03:22:00,37.0,18.0,-100.00,NNE,19,2.0,4.0,45,-99.99,,,-99.99,,2013-02-13 11:22:00,
2013-02-13 03:31:00,37.0,17.0,-100.00,NNE,20,3.0,4.0,44,-99.99,,,-99.99,,2013-02-13 11:31:00,
2013-02-13 03:42:00,36.0,18.0,-100.00,South,170,1.0,3.0,47,-99.99,,,-99.99,,2013-02-13 11:42:00,
2013-02-13 03:52:00,36.0,18.0,-100.00,North,5,3.0,4.0,47,-99.99,,,-99.99,,2013-02-13 11:52:00,
2013-02-13 04:02:00,36.0,18.0,-100.00,North,5,3.0,4.0,47,-99.99,,,-99.99,,2013-02-13 12:02:00,
2013-02-13 04:11:00,34.0,18.0,-100.00,NE,41,3.0,7.0,52,-99.99,,,-99.99,,2013-02-13 12:11:00,
2013-02-13 04:21:00,36.0,18.0,-100.00,NNE,20,2.0,5.0,47,-99.99,,,-99.99,,2013-02-13 12:21:00,
2013-02-13 04:31:00,32.0,19.0,-100.00,NE,51,3.0,4.0,59,-99.99,,,-99.99,,2013-02-13 12:31:00,
2013-02-13 04:42:00,31.0,20.0,-100.00,NE,35,2.0,4.0,62,-99.99,,,-99.99,,2013-02-13 12:42:00,
2013-02-13 04:52:00,31.0,20.0,-100.00,NE,45,2.0,4.0,62,-99.99,,,-99.99,,2013-02-13 12:52:00,
2013-02-13 05:02:00,31.0,20.0,-100.00,NE,46,3.0,4.0,63,-99.99,,,-99.99,,2013-02-13 13:02:00,
2013-02-13 05:11:00,32.0,20.0,-100.00,NE,36,2.0,4.0,60,-99.99,,,-99.99,,2013-02-13 13:11:00,
2013-02-13 05:21:00,33.0,19.0,-100.00,NNE,13,1.0,3.0,56,-99.99,,,-99.99,,2013-02-13 13:21:00,
2013-02-13 05:31:00,36.0,17.0,-100.00,North,5,2.0,3.0,46,-99.99,,,-99.99,,2013-02-13 13:31:00,
2013-02-13 05:41:00,33.0,19.0,-100.00,East,80,3.0,4.0,55,-99.99,,,-99.99,,2013-02-13 13:41:00,
2013-02-13 05:51:00,31.0,20.0,-100.00,North,357,3.0,5.0,63,-99.99,,,-99.99,,2013-02-13 13:51:00,
2013-02-13 06:01:00,33.0,19.0,-100.00,East,82,2.0,3.0,57,-99.99,,,-99.99,,2013-02-13 14:01:00,
2013-02-13 06:11:00,30.0,20.0,-100.00,North,1,2.0,5.0,65,-99.99,,,-99.99,,2013-02-13 14:11:00,
2013-02-13 06:21:00,35.0,19.0,-100.00,NNW,338,2.0,4.0,51,-99.99,,,-99.99,,2013-02-13 14:21:00,
2013-02-13 06:31:00,32.0,19.0,-100.00,NE,34,2.0,5.0,58,-99.99,,,-99.99,,2013-02-13 14:31:00,
2013-02-13 06:41:00,31.0,20.0,-100.00,NNE,25,2.0,4.0,63,-99.99,,,-99.99,,2013-02-13 14:41:00,
2013-02-13 06:52:00,31.0,19.0,-100.00,NNE,26,2.0,6.0,61,-99.99,,,-99.99,,2013-02-13 14:52:00,
2013-02-13 07:01:00,31.0,19.0,-100.00,NNE,26,2.0,6.0,61,-99.99,,,-99.99,,2013-02-13 15:01:00,
2013-02-13 07:11:00,32.0,19.0,-100.00,NE,46,5.0,7.0,58,-99.99,,,-99.99,,2013-02-13 15:11:00,
2013-02-13 07:21:00,33.0,19.0,-100.00,NNE,15,4.0,6.0,57,-99.99,,,-99.99,,2013-02-13 15:21:00,
2013-02-13 07:32:00,35.0,19.0,-100.00,North,11,3.0,4.0,51,-99.99,,,-99.99,,2013-02-13 15:32:00,
2013-02-13 07:41:00,38.0,18.0,-100.00,NNE,21,1.0,3.0,44,-99.99,,,-99.99,,2013-02-13 15:41:00,
2013-02-13 07:51:00,39.0,18.0,-100.00,ENE,59,3.0,5.0,43,-99.99,,,-99.99,,2013-02-13 15:51:00,
2013-02-13 08:01:00,39.0,19.0,-100.00,ENE,70,3.0,5.0,44,-99.99,,,-99.99,,2013-02-13 16:01:00,
2013-02-13 08:11:00,38.0,23.0,-100.00,ENE,71,2.0,5.0,55,-99.99,,,-99.99,,2013-02-13 16:11:00,
2013-02-13 08:21:00,39.0,25.0,-100.00,NE,42,2.0,4.0,58,-99.99,,,-99.99,,2013-02-13 16:21:00,
2013-02-13 08:31:00,41.0,27.0,-100.00,NE,46,2.0,3.0,56,-99.99,,,-99.99,,2013-02-13 16:31:00,
2013-02-13 08:41:00,43.0,27.0,-100.00,ENE,68,2.0,3.0,53,-99.99,,,-99.99,,2013-02-13 16:41:00,
2013-02-13 08:51:00,46.0,27.0,-100.00,ENE,68,2.0,3.0,48,-99.99,,,-99.99,,2013-02-13 16:51:00,
2013-02-13 09:01:00,49.0,27.0,-100.00,East,82,1.0,3.0,43,-99.99,,,-99.99,,2013-02-13 17:01:00,
2013-02-13 09:11:00,53.0,25.0,-100.00,ENE,71,0.0,2.0,33,-99.99,,,-99.99,,2013-02-13 17:11:00,
2013-02-13 09:21:00,55.0,21.0,-100.00,SSW,192,1.0,3.0,26,-99.99,,,-99.99,,2013-02-13 17:21:00,
2013-02-13 09:31:00,55.0,20.0,-100.00,NE,50,3.0,6.0,25,-99.99,,,-99.99,,2013-02-13 17:31:00,
2013-02-13 09:41:00,55.0,17.0,-100.00,NNE,32,5.0,8.0,22,-99.99,,,-99.99,,2013-02-13 17:41:00,
2013-02-13 09:52:00,56.0,17.0,-100.00,NNE,33,4.0,7.0,21,-99.99,,,-99.99,,2013-02-13 17:52:00,
2013-02-13 10:01:00,56.0,17.0,-100.00,NNE,33,4.0,7.0,21,-99.99,,,-99.99,,2013-02-13 18:01:00,
2013-02-13 10:11:00,57.0,15.0,-100.00,SSW,208,3.0,5.0,19,-99.99,,,-99.99,,2013-02-13 18:11:00,
2013-02-13 10:22:00,57.0,16.0,-100.00,South,182,3.0,6.0,20,-99.99,,,-99.99,,2013-02-13 18:22:00,
2013-02-13 10:32:00,58.0,17.0,-100.00,South,191,2.0,7.0,20,-99.99,,,-99.99,,2013-02-13 18:32:00,
2013-02-13 10:41:00,59.0,16.0,-100.00,SSW,206,3.0,8.0,18,-99.99,,,-99.99,,2013-02-13 18:41:00,
2013-02-13 10:51:00,59.0,19.0,-100.00,NE,55,4.0,8.0,21,-99.99,,,-99.99,,2013-02-13 18:51:00,
2013-02-13 11:01:00,59.0,19.0,-100.00,NE,55,4.0,8.0,21,-99.99,,,-99.99,,2013-02-13 19:01:00,
2013-02-13 11:11:00,59.0,18.0,-100.00,NNW,348,5.0,10.0,20,-99.99,,,-99.99,,2013-02-13 19:11:00,
2013-02-13 11:21:00,60.0,18.0,-100.00,NW,322,2.0,5.0,19,-99.99,,,-99.99,,2013-02-13 19:21:00,
2013-02-13 11:31:00,60.0,15.0,-100.00,SW,222,6.0,13.0,17,-99.99,,,-99.99,,2013-02-13 19:31:00,
2013-02-13 11:41:00,59.0,16.0,-100.00,SW,219,9.0,15.0,18,-99.99,,,-99.99,,2013-02-13 19:41:00,
2013-02-13 11:51:00,59.0,16.0,-100.00,SW,215,9.0,14.0,18,-99.99,,,-99.99,,2013-02-13 19:51:00,
2013-02-13 12:01:00,59.0,16.0,-100.00,SW,215,9.0,14.0,18,-99.99,,,-99.99,,2013-02-13 20:01:00,
2013-02-13 12:21:00,59.0,19.0,-100.00,SW,227,8.0,13.0,21,-99.99,,,-99.99,,2013-02-13 20:21:00,
2013-02-13 12:31:00,59.0,20.0,-100.00,SW,225,10.0,14.0,22,-99.99,,,-99.99,,2013-02-13 20:31:00,
2013-02-13 12:41:00,59.0,21.0,-100.00,SW,220,10.0,16.0,23,-99.99,,,-99.99,,2013-02-13 20:41:00,
2013-02-13 12:52:00,59.0,21.0,-100.00,SW,236,9.0,14.0,23,-99.99,,,-99.99,,2013-02-13 20:52:00,
2013-02-13 13:01:00,60.0,21.0,-100.00,SW,222,10.0,16.0,22,-99.99,,,-99.99,,2013-02-13 21:01:00,
2013-02-13 13:11:00,60.0,21.0,-100.00,SW,223,10.0,15.0,22,-99.99,,,-99.99,,2013-02-13 21:11:00,
2013-02-13 13:21:00,60.0,21.0,-100.00,SW,223,9.0,13.0,22,-99.99,,,-99.99,,2013-02-13 21:21:00,
2013-02-13 13:31:00,60.0,22.0,-100.00,SW,224,11.0,17.0,23,-99.99,,,-99.99,,2013-02-13 21:31:00,
2013-02-13 13:42:00,60.0,22.0,-100.00,SW,227,10.0,16.0,23,-99.99,,,-99.99,,2013-02-13 21:42:00,
2013-02-13 13:52:00,60.0,22.0,-100.00,WSW,245,8.0,14.0,23,-99.99,,,-99.99,,2013-02-13 21:52:00,
2013-02-13 14:02:00,60.0,22.0,-100.00,WSW,245,8.0,14.0,23,-99.99,,,-99.99,,2013-02-13 22:02:00,
2013-02-13 14:11:00,61.0,23.0,-100.00,West,275,6.0,13.0,23,-99.99,,,-99.99,,2013-02-13 22:11:00,
2013-02-13 14:21:00,61.0,23.0,-100.00,WNW,288,6.0,11.0,23,-99.99,,,-99.99,,2013-02-13 22:21:00,
2013-02-13 14:31:00,62.0,25.0,-100.00,WNW,284,5.0,11.0,24,-99.99,,,-99.99,,2013-02-13 22:31:00,
2013-02-13 14:42:00,61.0,25.0,-100.00,West,275,7.0,11.0,25,-99.99,,,-99.99,,2013-02-13 22:42:00,
2013-02-13 14:51:00,61.0,26.0,-100.00,West,263,7.0,11.0,26,-99.99,,,-99.99,,2013-02-13 22:51:00,
2013-02-13 15:01:00,60.0,26.0,-100.00,WNW,295,7.0,11.0,27,-99.99,,,-99.99,,2013-02-13 23:01:00,
2013-02-13 15:11:00,61.0,27.0,-100.00,West,266,6.0,11.0,27,-99.99,,,-99.99,,2013-02-13 23:11:00,
2013-02-13 15:21:00,60.0,26.0,-100.00,WSW,251,7.0,14.0,27,-99.99,,,-99.99,,2013-02-13 23:21:00,
2013-02-13 15:31:00,60.0,27.0,-100.00,WSW,257,6.0,12.0,28,-99.99,,,-99.99,,2013-02-13 23:31:00,
2013-02-13 15:41:00,60.0,27.0,-100.00,WSW,247,7.0,11.0,28,-99.99,,,-99.99,,2013-02-13 23:41:00,
2013-02-13 15:52:00,60.0,28.0,-100.00,WSW,250,7.0,12.0,29,-99.99,,,-99.99,,2013-02-13 23:52:00,
2013-02-13 16:01:00,60.0,28.0,-100.00,SW,235,7.0,13.0,30,-99.99,,,-99.99,,2013-02-14 00:01:00,
2013-02-13 16:11:00,60.0,28.0,-100.00,WSW,242,7.0,12.0,30,-99.99,,,-99.99,,2013-02-14 00:11:00,
2013-02-13 16:21:00,60.0,28.0,-100.00,WSW,246,7.0,11.0,30,-99.99,,,-99.99,,2013-02-14 00:21:00,
2013-02-13 16:31:00,60.0,29.0,-100.00,WSW,247,6.0,8.0,31,-99.99,,,-99.99,,2013-02-14 00:31:00,
2013-02-13 16:41:00,60.0,29.0,-100.00,WSW,246,5.0,9.0,31,-99.99,,,-99.99,,2013-02-14 00:41:00,
2013-02-13 16:51:00,60.0,28.0,-100.00,NW,304,5.0,8.0,30,-99.99,,,-99.99,,2013-02-14 00:51:00,
2013-02-13 17:01:00,60.0,28.0,-100.00,NNW,341,2.0,4.0,29,-99.99,,,-99.99,,2013-02-14 01:01:00,
2013-02-13 17:11:00,60.0,28.0,-100.00,North,355,2.0,3.0,29,-99.99,,,-99.99,,2013-02-14 01:11:00,
2013-02-13 17:21:00,59.0,29.0,-100.00,WNW,283,3.0,6.0,32,-99.99,,,-99.99,,2013-02-14 01:21:00,
2013-02-13 17:31:00,58.0,32.0,-100.00,West,268,4.0,8.0,37,-99.99,,,-99.99,,2013-02-14 01:31:00,
2013-02-13 17:41:00,58.0,32.0,-100.00,West,268,4.0,8.0,37,-99.99,,,-99.99,,2013-02-14 01:41:00,
2013-02-13 17:51:00,56.0,34.0,-100.00,WNW,292,3.0,6.0,43,-99.99,,,-99.99,,2013-02-14 01:51:00,
2013-02-13 18:01:00,54.0,34.0,-100.00,NNE,18,1.0,2.0,47,-99.99,,,-99.99,,2013-02-14 02:01:00,
2013-02-13 18:11:00,52.0,34.0,-100.00,North,10,1.0,3.0,50,-99.99,,,-99.99,,2013-02-14 02:11:00,
2013-02-13 18:21:00,52.0,34.0,-100.00,NW,315,2.0,3.0,50,-99.99,,,-99.99,,2013-02-14 02:21:00,
2013-02-13 18:31:00,51.0,34.0,-100.00,NNE,16,0.0,2.0,53,-99.99,,,-99.99,,2013-02-14 02:31:00,
2013-02-13 18:41:00,51.0,34.0,-100.00,NNE,16,0.0,2.0,53,-99.99,,,-99.99,,2013-02-14 02:41:00,
2013-02-13 18:51:00,51.0,34.0,-100.00,NNE,16,0.0,2.0,53,-99.99,,,-99.99,,2013-02-14 02:51:00,
2013-02-13 19:02:00,49.0,35.0,-100.00,South,182,2.0,3.0,58,-99.99,,,-99.99,,2013-02-14 03:02:00,
2013-02-13 19:11:00,48.0,35.0,-100.00,NNE,21,0.0,1.0,61,-99.99,,,-99.99,,2013-02-14 03:11:00,
2013-02-13 19:21:00,47.0,35.0,-100.00,NE,43,2.0,4.0,62,-99.99,,,-99.99,,2013-02-14 03:21:00,
2013-02-13 19:31:00,46.0,35.0,-100.00,NNE,32,2.0,4.0,66,-99.99,,,-99.99,,2013-02-14 03:31:00,
2013-02-13 19:42:00,45.0,35.0,-100.00,North,5,2.0,2.0,69,-99.99,,,-99.99,,2013-02-14 03:42:00,
2013-02-13 19:51:00,45.0,36.0,-100.00,North,2,1.0,3.0,70,-99.99,,,-99.99,,2013-02-14 03:51:00,
2013-02-13 20:01:00,45.0,35.0,-100.00,ENE,60,3.0,4.0,68,-99.99,,,-99.99,,2013-02-14 04:01:00,
2013-02-13 20:11:00,44.0,35.0,-100.00,NNE,19,3.0,4.0,70,-99.99,,,-99.99,,2013-02-14 04:11:00,
2013-02-13 20:21:00,45.0,35.0,-100.00,NNE,23,2.0,4.0,67,-99.99,,,-99.99,,2013-02-14 04:21:00,
2013-02-13 20:31:00,43.0,34.0,-100.00,NE,47,3.0,6.0,70,-99.99,,,-99.99,,2013-02-14 04:31:00,
2013-02-13 20:41:00,43.0,35.0,-100.00,NNE,24,4.0,6.0,73,-99.99,,,-99.99,,2013-02-14 04:41:00,
2013-02-13 20:51:00,45.0,35.0,-100.00,NNE,20,2.0,4.0,68,-99.99,,,-99.99,,2013-02-14 04:51:00,
2013-02-13 21:01:00,44.0,34.0,-100.00,NE,48,3.0,4.0,67,-99.99,,,-99.99,,2013-02-14 05:01:00,
2013-02-13 21:11:00,43.0,34.0,-100.00,NNE,16,3.0,4.0,71,-99.99,,,-99.99,,2013-02-14 05:11:00,
2013-02-13 21:21:00,44.0,34.0,-100.00,North,7,2.0,3.0,68,-99.99,,,-99.99,,2013-02-14 05:21:00,
2013-02-13 21:31:00,43.0,34.0,-100.00,NE,39,2.0,3.0,69,-99.99,,,-99.99,,2013-02-14 05:31:00,
2013-02-13 21:41:00,43.0,34.0,-100.00,NNE,17,3.0,5.0,71,-99.99,,,-99.99,,2013-02-14 05:41:00,
2013-02-13 21:51:00,43.0,33.0,-100.00,NE,49,3.0,5.0,68,-99.99,,,-99.99,,2013-02-14 05:51:00,
2013-02-13 22:01:00,38.0,32.0,-100.00,NE,44,3.0,5.0,78,-99.99,,,-99.99,,2013-02-14 06:01:00,
2013-02-13 22:11:00,38.0,33.0,-100.00,NE,45,4.0,6.0,82,-99.99,,,-99.99,,2013-02-14 06:11:00,
2013-02-13 22:21:00,41.0,34.0,-100.00,NE,42,5.0,6.0,77,-99.99,,,-99.99,,2013-02-14 06:21:00,
2013-02-13 22:31:00,43.0,35.0,-100.00,North,358,2.0,4.0,72,-99.99,,,-99.99,,2013-02-14 06:31:00,
2013-02-13 22:41:00,44.0,34.0,-100.00,North,1,2.0,3.0,68,-99.99,,,-99.99,,2013-02-14 06:41:00,
2013-02-13 22:51:00,44.0,34.0,-100.00,North,1,2.0,3.0,68,-99.99,,,-99.99,,2013-02-14 06:51:00,
2013-02-13 23:01:00,42.0,32.0,-100.00,NNE,23,2.0,3.0,67,-99.99,,,-99.99,,2013-02-14 07:01:00,
2013-02-13 23:11:00,44.0,32.0,-100.00,NNE,25,3.0,4.0,62,-99.99,,,-99.99,,2013-02-14 07:11:00,
2013-02-13 23:21:00,41.0,31.0,-100.00,NNE,22,2.0,3.0,67,-99.99,,,-99.99,,2013-02-14 07:21:00,
2013-02-13 23:31:00,43.0,31.0,-100.00,NE,35,3.0,5.0,62,-99.99,,,-99.99,,2013-02-14 07:31:00,
2013-02-13 23:41:00,38.0,30.0,-100.00,NE,45,3.0,5.0,73,-99.99,,,-99.99,,2013-02-14 07:41:00,
2013-02-13 23:51:00,39.0,31.0,-100.00,NE,51,2.0,4.0,72,-99.99,,,-99.99,,2013-02-14 07:51:00,